Portada
METAR-TAF:

METAR-TAF

Aeroports :

Scilly, Anglaterra

latitud: 49-55N, longitud: 006-18W, altitud: 31 m

Observació

L'informe es va fer fa 5 hores i 49 minuts, a les 16:50 UTC
Vent 14 kt del Oest
Temperatura 11°C
Humitat 87%
Pressió 1010 hPa
Visibilitat 10 km o més
Escasses núvols a una alçada de 1200 ft

METAR: EGHE 061650Z 27014KT 9999 FEW012 11/09 Q1010

Hora: 22:39 (22:39 UTC)

Pronòstic

L'informe es va fer fa 8 hores i 42 minuts, a les 13:57 UTC
Pronòstic vàlid del 06 a les 15 UTC al 06 a les 17 UTC
Vent 20 kt del Oest
Visibilitat 10 km o més
Escasses núvols a una alçada de 1000 ft
Núvols disperses a una alçada de 2500 ft
Temporalment
l' 06 a les 15 UTC al 06 a les 17 UTC
Vent 25 kt del Oest amb ràfegues de 35 kt
Probabilitat 30% :
Temporalment
l' 06 a les 15 UTC al 06 a les 17 UTC
Visibilitat: 8000 m
Cel ennuvolat a una alçada de 900 ft

TAF: EGHE 061357Z 0615/0617 26020KT 9999 FEW010 SCT025 TEMPO 0615/0617 28025G35KT PROB30 TEMPO 0615/0617 8000 BKN009

Observacions i pronòstics meteorològics de més de 4000 aeroports (METAR i TAF).

Les estacions disponibles són els punts grocs i vermells al mapa.

Posi el ratolí al punt desitjat per veure el nom de l'estació.

Feu clic per veure les observacions i els pronòstics meteorològics.

Per canviar el mapa: feu clic els botons verds amb una creu de color negre per apropar; al botó verd amb un guió per allunyar la imatge; o en les fletxes verdes per a mapes adjacents.


METAR-TAF: